Primghar, Iowa
Current Conditions -  °F | °C
As of 8:35 AM on Tuesday 27 Jan 2015 (Local Time) from KSHL Reporting Station
Moderate Fog Moderate Fog  
Wind Chill: 22°   Ceiling: 300
Heat Index: 30°   Visibility: 0.5mi
Dew Point: 30°   Wind: 9mph
Humidity: 100%   Direction: 110°ESE
Pressure: 30.1"   Gusts: NA
Location:  43.09°N, 95.63°W
Report Text: KSHL 271435Z AUTO 11008KT 1/2SM FZFG OVC003 M01/M01 A3010 RMK AO2
Loading
Personal Weather Stations






























Interactive Weather Map New forecast layout! Learn more

10-Day Weather Forecast

Advertisements
Track Severe Weather on mobile